Time;durP1;ratioP1;P1;durP2;ratioP2;P2;SDS_P1;SDS_P2;PMS_P1;PMS_P2;Temp;Humidity;BMP_temperature;BMP_pressure;BME280_temperature;BME280_humidity;BME280_pressure;Samples;Min_cycle;Max_cycle;Signal;HPM_P1;HPM_P2
2023/04/22 00:00:00;;;;;;;2.00;0.63;;;9.60;99.90;;;;;;5093952;28;20047;-66
2023/04/22 00:02:28;;;;;;;1.75;0.70;;;9.50;99.90;;;;;;5092727;28;20040;-66
2023/04/22 00:04:56;;;;;;;2.92;1.20;;;9.50;99.90;;;;;;5092095;28;20044;-66
2023/04/22 00:07:22;;;;;;;1.15;0.65;;;9.40;99.90;;;;;;5091959;28;20105;-66
2023/04/22 00:09:48;;;;;;;1.75;0.77;;;9.40;99.90;;;;;;5091213;28;20067;-66
2023/04/22 00:12:14;;;;;;;1.23;0.80;;;9.30;99.90;;;;;;5093253;28;20513;-66
2023/04/22 00:14:40;;;;;;;1.52;0.60;;;9.20;99.90;;;;;;5093214;28;20047;-66
2023/04/22 00:17:06;;;;;;;4.97;0.60;;;9.20;99.90;;;;;;5092487;28;20105;-66
2023/04/22 00:19:32;;;;;;;2.33;0.90;;;9.20;99.90;;;;;;5093268;28;20040;-66
2023/04/22 00:21:58;;;;;;;1.20;0.70;;;9.10;99.90;;;;;;5091772;28;20078;-66
2023/04/22 00:24:24;;;;;;;1.42;0.70;;;9.00;99.90;;;;;;5091109;28;20047;-66
2023/04/22 00:26:49;;;;;;;1.17;0.90;;;8.90;99.90;;;;;;5092906;28;20044;-66
2023/04/22 00:29:15;;;;;;;1.88;0.77;;;8.80;99.90;;;;;;5091586;28;20040;-66
2023/04/22 00:31:41;;;;;;;4.50;0.73;;;8.70;99.90;;;;;;5074060;28;20040;-66
2023/04/22 00:34:07;;;;;;;0.95;0.73;;;8.70;99.90;;;;;;5091951;28;20035;-66
2023/04/22 00:36:32;;;;;;;1.30;0.65;;;8.60;99.90;;;;;;5091130;28;20425;-66
2023/04/22 00:38:58;;;;;;;1.13;0.70;;;8.40;99.90;;;;;;5091424;28;20417;-66
2023/04/22 00:41:25;;;;;;;6.97;0.95;;;8.40;99.90;;;;;;5074556;28;20086;-66
2023/04/22 00:43:52;;;;;;;2.30;0.55;;;8.40;99.90;;;;;;5092012;28;20513;-66
2023/04/22 00:46:19;;;;;;;1.38;0.73;;;8.30;99.90;;;;;;5074594;28;20040;-66
2023/04/22 00:48:45;;;;;;;0.95;0.60;;;8.30;99.90;;;;;;5091137;28;20137;-66
2023/04/22 00:51:11;;;;;;;0.40;0.30;;;8.10;99.90;;;;;;5092052;28;20063;-67
2023/04/22 00:53:37;;;;;;;2.15;0.82;;;8.00;99.90;;;;;;5074252;28;20036;-66
2023/04/22 00:56:03;;;;;;;0.73;0.68;;;8.00;99.90;;;;;;5091182;28;20040;-66
2023/04/22 00:58:29;;;;;;;2.33;0.93;;;7.90;99.90;;;;;;5073920;28;20455;-66
2023/04/22 01:00:56;;;;;;;1.15;0.77;;;8.00;99.90;;;;;;5092463;28;20054;-66
2023/04/22 01:03:22;;;;;;;1.50;0.88;;;7.90;99.90;;;;;;5091335;28;20344;-66
2023/04/22 01:05:49;;;;;;;1.13;0.60;;;7.90;99.90;;;;;;5091783;28;20043;-66
2023/04/22 01:08:16;;;;;;;1.65;1.02;;;7.80;99.90;;;;;;5074101;28;20036;-66
2023/04/22 01:10:42;;;;;;;1.10;0.70;;;7.90;99.90;;;;;;5090664;28;20559;-66
2023/04/22 01:13:08;;;;;;;3.08;1.15;;;7.90;99.90;;;;;;5090189;28;20044;-66
2023/04/22 01:15:35;;;;;;;7.28;1.20;;;8.00;99.90;;;;;;5091938;28;20093;-66
2023/04/22 01:18:01;;;;;;;1.30;1.00;;;8.00;99.90;;;;;;5090915;28;20130;-66
2023/04/22 01:20:30;;;;;;;2.88;1.20;;;8.00;99.90;;;;;;5073192;28;20093;-66
2023/04/22 01:23:01;;;;;;;1.15;1.00;;;8.00;99.90;;;;;;5091836;28;20047;-66
2023/04/22 01:25:27;;;;;;;3.30;1.05;;;8.00;99.90;;;;;;5073738;28;20123;-66
2023/04/22 01:27:54;;;;;;;0.82;0.75;;;7.90;99.90;;;;;;5089890;28;20123;-66
2023/04/22 01:30:20;;;;;;;2.10;1.23;;;7.90;99.90;;;;;;5073875;28;20131;-66
2023/04/22 01:32:46;;;;;;;1.02;0.63;;;7.90;99.90;;;;;;5089830;28;20474;-66
2023/04/22 01:35:12;;;;;;;0.47;0.40;;;7.80;99.90;;;;;;5090664;28;20401;-66
2023/04/22 01:41:20;;;;;;;0.70;0.45;;;7.60;99.90;;;;;;5090902;28;20027;-66
2023/04/22 01:43:45;;;;;;;0.50;0.40;;;7.60;99.90;;;;;;5072861;28;20051;-66
2023/04/22 01:46:11;;;;;;;1.83;0.50;;;7.50;99.90;;;;;;5090988;28;20497;-66
2023/04/22 01:48:37;;;;;;;1.20;0.60;;;7.50;99.90;;;;;;5088733;28;20040;-66
2023/04/22 01:51:03;;;;;;;2.38;0.85;;;7.50;99.90;;;;;;5089436;28;20047;-66
2023/04/22 01:53:29;;;;;;;1.30;0.65;;;7.40;99.90;;;;;;5090669;28;20040;-66
2023/04/22 01:55:55;;;;;;;1.95;1.17;;;7.40;99.90;;;;;;5088814;28;20086;-66
2023/04/22 01:58:20;;;;;;;0.38;0.30;;;7.40;99.90;;;;;;5089195;28;20040;-66
2023/04/22 02:00:46;;;;;;;7.07;0.65;;;7.40;99.90;;;;;;5088776;28;20040;-66
2023/04/22 02:03:12;;;;;;;6.28;0.70;;;7.30;99.90;;;;;;5089471;28;20062;-65
2023/04/22 02:05:39;;;;;;;1.27;0.40;;;7.30;99.90;;;;;;5089314;28;20036;-66
2023/04/22 02:08:05;;;;;;;0.85;0.85;;;7.30;99.90;;;;;;5089557;28;20048;-66
2023/04/22 02:10:30;;;;;;;3.65;1.50;;;7.30;99.90;;;;;;5088985;28;20109;-66
2023/04/22 02:12:56;;;;;;;1.95;1.13;;;7.30;99.90;;;;;;5088559;28;20043;-66
2023/04/22 02:15:22;;;;;;;3.63;0.90;;;7.30;99.90;;;;;;5090026;28;20040;-66
2023/04/22 02:17:49;;;;;;;4.95;0.68;;;7.30;99.90;;;;;;5088942;28;20043;-66
2023/04/22 02:20:15;;;;;;;1.50;0.73;;;7.40;99.90;;;;;;5090382;28;20043;-66
2023/04/22 02:22:42;;;;;;;0.90;0.55;;;7.40;99.90;;;;;;5088302;28;20563;-66
2023/04/22 02:25:09;;;;;;;0.40;0.32;;;7.40;99.90;;;;;;5088733;28;20052;-66
2023/04/22 02:27:35;;;;;;;0.60;0.60;;;7.30;99.90;;;;;;5088838;28;20048;-66
2023/04/22 02:30:02;;;;;;;0.30;0.30;;;7.20;99.90;;;;;;5071323;28;20071;-66
2023/04/22 02:32:28;;;;;;;0.80;0.40;;;7.20;99.90;;;;;;5089800;28;20039;-65
2023/04/22 02:34:54;;;;;;;13.65;0.77;;;7.10;99.90;;;;;;5090368;28;20043;-66
2023/04/22 02:37:21;;;;;;;0.57;0.45;;;7.10;99.90;;;;;;5089370;28;20039;-66
2023/04/22 02:39:48;;;;;;;0.20;0.15;;;7.10;99.90;;;;;;5089990;28;20105;-66
2023/04/22 02:42:14;;;;;;;0.98;0.30;;;7.10;99.90;;;;;;5089697;28;20075;-66
2023/04/22 02:44:40;;;;;;;0.93;0.50;;;7.10;99.90;;;;;;5088012;28;20042;-66
2023/04/22 02:47:06;;;;;;;0.95;0.52;;;7.00;99.90;;;;;;5071882;28;20035;-66
2023/04/22 02:49:32;;;;;;;0.25;0.25;;;6.90;99.90;;;;;;5089818;28;20386;-66
2023/04/22 02:51:57;;;;;;;0.80;0.60;;;6.80;99.90;;;;;;5089484;28;20040;-66
2023/04/22 02:54:23;;;;;;;0.15;0.15;;;6.80;99.90;;;;;;5088181;28;20055;-66
2023/04/22 02:56:49;;;;;;;1.13;0.30;;;6.70;99.90;;;;;;5070799;28;20047;-66
2023/04/22 02:59:15;;;;;;;0.13;0.13;;;6.60;99.90;;;;;;5088285;28;20047;-66
2023/04/22 03:01:40;;;;;;;0.20;0.20;;;6.40;99.90;;;;;;5089566;28;20036;-65
2023/04/22 03:04:06;;;;;;;0.30;0.30;;;6.40;99.90;;;;;;5107559;28;20043;-65
2023/04/22 03:06:32;;;;;;;0.57;0.57;;;6.30;99.90;;;;;;5108597;28;20094;-65
2023/04/22 03:08:58;;;;;;;0.60;0.50;;;6.30;99.90;;;;;;5109815;28;20661;-65
2023/04/22 03:11:23;;;;;;;0.45;0.45;;;6.20;99.90;;;;;;5108810;28;20087;-65
2023/04/22 03:13:49;;;;;;;0.30;0.30;;;6.10;99.90;;;;;;5091331;28;20043;-65
2023/04/22 03:16:18;;;;;;;0.47;0.35;;;6.00;99.90;;;;;;5091257;28;20035;-65
2023/04/22 03:18:44;;;;;;;0.55;0.55;;;6.00;99.90;;;;;;5109184;28;20036;-66
2023/04/22 03:21:09;;;;;;;0.40;0.40;;;6.00;99.90;;;;;;5109806;28;20449;-66
2023/04/22 03:23:35;;;;;;;0.50;0.40;;;6.10;99.90;;;;;;5108142;28;20035;-66
2023/04/22 03:26:01;;;;;;;1.10;0.57;;;6.10;99.90;;;;;;5108662;28;20039;-65
2023/04/22 03:28:26;;;;;;;1.30;0.77;;;6.20;99.90;;;;;;5109566;28;20101;-66
2023/04/22 03:30:52;;;;;;;0.40;0.40;;;6.20;99.90;;;;;;5108348;28;20035;-65
2023/04/22 03:33:18;;;;;;;0.70;0.68;;;6.30;99.90;;;;;;5090478;28;20036;-66
2023/04/22 03:35:47;;;;;;;1.20;0.88;;;6.30;99.90;;;;;;5109473;28;20089;-66
2023/04/22 03:38:14;;;;;;;1.65;0.85;;;6.40;99.90;;;;;;5109431;28;20038;-66
2023/04/22 03:40:41;;;;;;;1.02;0.57;;;6.40;99.90;;;;;;5107284;28;20052;-65
2023/04/22 03:43:06;;;;;;;0.82;0.82;;;6.40;99.90;;;;;;5108068;28;20039;-65
2023/04/22 03:45:33;;;;;;;2.08;1.00;;;6.50;99.90;;;;;;5107882;28;20481;-65
2023/04/22 03:47:59;;;;;;;1.83;0.75;;;6.50;99.90;;;;;;5107666;28;20047;-65
2023/04/22 03:50:24;;;;;;;1.90;1.30;;;6.50;99.90;;;;;;5108098;28;20032;-66
2023/04/22 03:52:50;;;;;;;2.05;0.68;;;6.50;99.90;;;;;;5107457;28;20050;-65
2023/04/22 03:55:16;;;;;;;0.40;0.40;;;6.50;99.90;;;;;;5090935;28;20505;-65
2023/04/22 03:57:41;;;;;;;0.50;0.40;;;6.30;99.90;;;;;;5107765;28;20039;-65
2023/04/22 04:00:08;;;;;;;0.20;0.20;;;6.00;99.90;;;;;;5107150;28;20047;-66
2023/04/22 04:02:33;;;;;;;0.50;0.40;;;5.70;99.90;;;;;;5109055;28;20043;-65
2023/04/22 04:05:00;;;;;;;0.80;0.68;;;5.60;99.90;;;;;;5108071;28;20050;-65
2023/04/22 04:07:26;;;;;;;0.73;0.50;;;5.50;99.90;;;;;;5090005;28;20054;-65
2023/04/22 04:09:52;;;;;;;0.30;0.30;;;5.50;99.90;;;;;;5107632;28;20039;-65
2023/04/22 04:12:18;;;;;;;0.43;0.38;;;5.40;99.90;;;;;;5109222;28;20071;-65
2023/04/22 04:14:44;;;;;;;0.20;0.20;;;5.30;99.90;;;;;;5108447;28;20036;-65
2023/04/22 04:17:12;;;;;;;0.30;0.30;;;5.20;99.90;;;;;;5090652;28;20036;-65
2023/04/22 04:19:39;;;;;;;1.42;0.50;;;5.10;99.90;;;;;;5107492;28;20047;-65
2023/04/22 04:22:05;;;;;;;0.38;0.30;;;5.00;99.90;;;;;;5107127;28;20040;-65
2023/04/22 04:24:31;;;;;;;0.30;0.30;;;5.00;99.90;;;;;;5090536;28;20054;-65
2023/04/22 04:26:57;;;;;;;0.10;0.10;;;4.90;99.90;;;;;;5107589;28;20047;-65
2023/04/22 04:29:23;;;;;;;1.88;0.50;;;4.90;99.90;;;;;;5089782;28;20051;-65
2023/04/22 04:31:48;;;;;;;0.60;0.50;;;4.80;99.90;;;;;;5107708;28;20122;-65
2023/04/22 04:34:14;;;;;;;0.30;0.30;;;4.80;99.90;;;;;;5109078;28;20493;-65
2023/04/22 04:36:40;;;;;;;0.60;0.40;;;4.70;99.90;;;;;;5111086;28;20209;-65
2023/04/22 04:39:07;;;;;;;0.28;0.28;;;4.70;99.90;;;;;;5112705;28;20126;-65
2023/04/22 04:41:32;;;;;;;0.65;0.43;;;4.60;99.90;;;;;;5110567;28;20047;-65
2023/04/22 04:44:01;;;;;;;0.50;0.40;;;4.60;99.90;;;;;;5111315;28;20032;-65
2023/04/22 04:46:31;;;;;;;0.43;0.20;;;4.70;99.90;;;;;;5112566;28;20042;-66
2023/04/22 04:48:57;;;;;;;0.60;0.30;;;4.70;99.90;;;;;;5110703;28;20036;-65
2023/04/22 04:51:23;;;;;;;0.52;0.45;;;4.70;99.90;;;;;;5111256;28;20412;-65
2023/04/22 04:53:49;;;;;;;1.08;0.50;;;4.60;99.90;;;;;;5111231;28;20043;-65
2023/04/22 04:56:15;;;;;;;1.02;0.57;;;4.60;99.90;;;;;;5110633;28;20507;-66
2023/04/22 04:58:41;;;;;;;0.60;0.30;;;4.50;99.90;;;;;;5111305;28;20031;-66
2023/04/22 05:01:07;;;;;;;1.08;0.63;;;4.60;99.90;;;;;;5093825;28;20538;-66
2023/04/22 05:03:33;;;;;;;0.90;0.50;;;4.60;99.90;;;;;;5110214;28;20097;-66
2023/04/22 05:05:59;;;;;;;2.55;1.02;;;4.70;99.90;;;;;;5110965;28;20043;-66
2023/04/22 05:08:24;;;;;;;0.57;0.55;;;4.80;99.90;;;;;;5110842;28;20454;-66
2023/04/22 05:10:50;;;;;;;0.45;0.40;;;4.90;99.90;;;;;;5110365;28;20048;-66
2023/04/22 05:13:16;;;;;;;0.90;0.82;;;4.90;99.90;;;;;;5111784;28;20511;-66
2023/04/22 05:15:42;;;;;;;1.65;0.80;;;4.90;99.90;;;;;;5112935;28;20067;-66
2023/04/22 05:18:07;;;;;;;0.98;0.47;;;5.00;99.90;;;;;;5112136;28;20528;-66
2023/04/22 05:20:33;;;;;;;1.00;0.50;;;5.10;99.90;;;;;;5112682;28;20553;-67
2023/04/22 05:22:59;;;;;;;1.08;0.80;;;5.30;99.90;;;;;;5111413;28;20492;-66
2023/04/22 05:25:25;;;;;;;1.25;0.55;;;5.40;99.90;;;;;;5110660;28;20050;-66
2023/04/22 05:27:51;;;;;;;0.57;0.50;;;5.50;99.90;;;;;;5094514;28;20089;-66
2023/04/22 05:30:16;;;;;;;1.52;0.82;;;5.50;99.90;;;;;;5112710;28;20063;-66
2023/04/22 05:32:42;;;;;;;1.05;0.60;;;5.50;99.90;;;;;;5110189;28;20388;-66
2023/04/22 05:35:09;;;;;;;1.27;0.90;;;5.50;99.90;;;;;;5111777;28;20088;-66
2023/04/22 05:37:34;;;;;;;0.85;0.70;;;5.50;99.90;;;;;;5108314;28;20043;-66
2023/04/22 05:40:00;;;;;;;0.55;0.52;;;5.50;99.90;;;;;;5110525;28;20100;-66
2023/04/22 05:42:28;;;;;;;2.15;0.65;;;5.50;99.90;;;;;;5110607;28;20060;-66
2023/04/22 05:44:53;;;;;;;0.32;0.30;;;5.60;99.90;;;;;;5110975;28;20032;-66
2023/04/22 05:47:19;;;;;;;0.68;0.50;;;5.60;99.90;;;;;;5109464;28;20035;-66
2023/04/22 05:49:45;;;;;;;0.80;0.63;;;5.70;99.90;;;;;;5109937;28;20504;-66
2023/04/22 05:52:10;;;;;;;0.75;0.65;;;5.70;99.90;;;;;;5109480;28;20047;-66
2023/04/22 05:54:45;;;;;;;0.98;0.43;;;5.70;99.90;;;;;;5109959;28;20036;-66
2023/04/22 05:57:11;;;;;;;3.13;0.65;;;5.70;99.90;;;;;;5108877;28;20622;-66
2023/04/22 05:59:37;;;;;;;1.40;0.73;;;5.80;99.90;;;;;;5109522;28;20126;-65
2023/04/22 06:02:03;;;;;;;3.15;0.90;;;5.80;99.90;;;;;;5109945;28;20035;-65
2023/04/22 06:04:29;;;;;;;1.27;0.85;;;5.90;99.90;;;;;;5110091;28;20386;-66
2023/04/22 06:06:55;;;;;;;1.23;0.68;;;6.10;99.90;;;;;;5092063;28;20177;-66
2023/04/22 06:09:21;;;;;;;1.02;0.60;;;6.20;99.90;;;;;;5109502;28;20036;-66
2023/04/22 06:11:47;;;;;;;1.25;0.77;;;6.40;99.90;;;;;;5109606;28;20144;-66
2023/04/22 06:14:13;;;;;;;1.83;0.75;;;6.50;99.90;;;;;;5110278;28;20050;-66
2023/04/22 06:16:39;;;;;;;0.90;0.43;;;6.70;99.90;;;;;;5092513;28;20118;-66
2023/04/22 06:19:06;;;;;;;2.42;1.23;;;6.80;99.90;;;;;;5109630;28;20172;-66
2023/04/22 06:21:32;;;;;;;1.88;0.95;;;6.80;99.90;;;;;;5109044;28;20666;-66
2023/04/22 06:24:00;;;;;;;2.70;1.17;;;6.90;99.90;;;;;;5109459;28;20055;-66
2023/04/22 06:26:26;;;;;;;1.27;0.73;;;7.00;99.90;;;;;;5110231;28;20133;-66
2023/04/22 06:28:52;;;;;;;3.08;1.63;;;7.10;99.90;;;;;;5091773;28;20128;-66
2023/04/22 06:31:18;;;;;;;2.58;1.05;;;7.20;99.90;;;;;;5109337;28;20032;-66
2023/04/22 06:33:43;;;;;;;2.63;0.60;;;7.40;99.90;;;;;;5108893;28;20028;-66
2023/04/22 06:36:09;;;;;;;1.23;0.65;;;7.50;99.90;;;;;;5109626;28;20043;-66
2023/04/22 06:38:35;;;;;;;2.85;1.20;;;7.70;99.90;;;;;;5109538;28;20061;-66
2023/04/22 06:41:01;;;;;;;3.40;1.40;;;7.80;99.90;;;;;;5108640;28;20477;-66
2023/04/22 06:43:26;;;;;;;1.40;0.80;;;8.00;99.90;;;;;;5110976;28;20093;-66
2023/04/22 06:45:52;;;;;;;2.35;1.08;;;8.10;99.90;;;;;;5108844;28;20489;-66
2023/04/22 06:48:18;;;;;;;3.00;1.48;;;8.20;99.90;;;;;;5107826;28;20078;-66
2023/04/22 06:50:43;;;;;;;2.08;1.40;;;8.40;99.90;;;;;;5108166;28;20438;-66
2023/04/22 06:53:09;;;;;;;3.00;1.55;;;8.60;99.90;;;;;;5108118;28;20185;-66
2023/04/22 06:55:35;;;;;;;2.85;1.30;;;8.80;99.90;;;;;;5107880;28;20046;-66
2023/04/22 06:58:01;;;;;;;2.63;1.40;;;9.00;99.90;;;;;;5108241;28;20105;-66
2023/04/22 07:00:27;;;;;;;3.50;1.50;;;9.20;99.90;;;;;;5106968;28;20048;-66
2023/04/22 07:02:53;;;;;;;3.33;1.65;;;9.40;99.90;;;;;;5109183;28;20039;-66
2023/04/22 07:05:19;;;;;;;2.42;1.38;;;9.60;99.90;;;;;;5109670;28;20051;-66
2023/04/22 07:07:46;;;;;;;5.03;1.85;;;9.70;99.90;;;;;;5109832;28;20043;-66
2023/04/22 07:10:13;;;;;;;7.88;2.35;;;9.80;99.90;;;;;;5107701;28;20585;-67
2023/04/22 07:12:39;;;;;;;2.20;1.50;;;10.00;99.90;;;;;;5091869;28;20053;-66
2023/04/22 07:15:06;;;;;;;6.07;2.22;;;10.10;99.90;;;;;;5091258;28;20043;-67
2023/04/22 07:17:32;;;;;;;4.60;1.90;;;10.20;99.90;;;;;;5107672;28;20046;-67
2023/04/22 07:19:58;;;;;;;4.70;2.17;;;10.30;99.90;;;;;;5108414;28;20070;-67
2023/04/22 07:22:24;;;;;;;4.32;2.58;;;10.40;99.90;;;;;;5109837;28;20470;-67
2023/04/22 07:24:49;;;;;;;3.45;1.90;;;10.60;99.90;;;;;;5108679;28;20075;-68
2023/04/22 07:27:16;;;;;;;3.60;2.05;;;10.70;99.90;;;;;;5108830;28;20078;-68
2023/04/22 07:29:42;;;;;;;6.00;2.67;;;10.80;99.90;;;;;;5108767;28;20162;-68
2023/04/22 07:32:08;;;;;;;6.25;3.05;;;10.90;99.90;;;;;;5109235;28;20039;-68
2023/04/22 07:34:34;;;;;;;6.38;2.67;;;11.00;99.90;;;;;;5109487;28;20032;-68
2023/04/22 07:37:00;;;;;;;5.85;2.25;;;11.10;99.90;;;;;;5107287;28;20462;-68
2023/04/22 07:39:26;;;;;;;6.60;2.85;;;11.30;99.90;;;;;;5107951;28;20043;-69
2023/04/22 07:41:52;;;;;;;6.75;3.15;;;11.40;99.90;;;;;;5108040;28;20043;-69
2023/04/22 07:44:20;;;;;;;6.18;2.42;;;11.50;99.90;;;;;;5107592;28;20047;-69
2023/04/22 07:46:47;;;;;;;4.68;2.55;;;11.50;99.90;;;;;;5108021;28;20044;-69
2023/04/22 07:49:13;;;;;;;7.68;3.65;;;11.60;99.90;;;;;;5109353;28;20441;-69
2023/04/22 07:51:39;;;;;;;4.68;2.50;;;11.70;99.90;;;;;;5108724;28;20156;-68
2023/04/22 07:54:05;;;;;;;6.95;3.28;;;11.90;99.90;;;;;;5109260;28;20424;-68
2023/04/22 07:56:31;;;;;;;5.15;2.70;;;12.00;99.90;;;;;;5108955;28;20054;-68
2023/04/22 07:58:56;;;;;;;6.93;3.97;;;12.10;99.90;;;;;;5107268;28;20035;-68
2023/04/22 08:01:22;;;;;;;4.30;2.70;;;12.20;99.90;;;;;;5090939;28;20043;-69
2023/04/22 08:03:48;;;;;;;9.10;3.78;;;12.30;99.90;;;;;;5107544;28;20118;-69
2023/04/22 08:06:14;;;;;;;7.50;3.40;;;12.40;99.90;;;;;;5107270;28;20040;-68
2023/04/22 08:08:39;;;;;;;5.93;3.78;;;12.50;99.90;;;;;;5107501;28;20621;-67
2023/04/22 08:11:06;;;;;;;6.40;3.20;;;12.60;99.90;;;;;;5110838;28;20061;-68
2023/04/22 08:13:32;;;;;;;5.43;3.17;;;12.70;99.90;;;;;;5112748;28;20048;-69
2023/04/22 08:15:59;;;;;;;7.47;3.80;;;12.90;99.90;;;;;;5113235;28;20042;-67
2023/04/22 08:18:25;;;;;;;5.43;3.28;;;13.00;99.90;;;;;;5111451;28;20082;-70
2023/04/22 08:20:51;;;;;;;7.10;3.63;;;13.10;99.90;;;;;;5111057;28;20071;-67
2023/04/22 08:23:16;;;;;;;8.25;4.40;;;13.10;99.90;;;;;;5111904;28;20051;-68
2023/04/22 08:25:42;;;;;;;7.15;2.90;;;13.20;99.90;;;;;;5111146;28;20040;-67
2023/04/22 08:28:08;;;;;;;8.40;3.80;;;13.30;99.90;;;;;;5111647;28;20050;-69
2023/04/22 08:30:33;;;;;;;6.05;3.58;;;13.30;99.90;;;;;;5112923;28;20100;-68
2023/04/22 08:32:59;;;;;;;5.63;3.83;;;13.40;99.90;;;;;;5112276;28;20032;-69
2023/04/22 08:35:25;;;;;;;5.30;3.42;;;13.50;99.90;;;;;;5111212;28;20609;-69
2023/04/22 08:37:51;;;;;;;7.10;3.70;;;13.60;99.90;;;;;;5111165;28;20164;-68
2023/04/22 08:40:17;;;;;;;5.45;3.17;;;13.70;99.90;;;;;;5112149;28;20122;-66
2023/04/22 08:42:43;;;;;;;7.25;3.38;;;13.80;99.90;;;;;;5111430;28;20090;-66
2023/04/22 08:45:10;;;;;;;7.07;3.35;;;14.10;99.90;;;;;;5111580;28;20480;-67
2023/04/22 08:47:38;;;;;;;5.57;3.28;;;14.30;99.90;;;;;;5110367;28;20048;-66
2023/04/22 08:50:05;;;;;;;6.18;3.28;;;14.70;99.90;;;;;;5111012;28;20035;-66
2023/04/22 08:52:31;;;;;;;4.65;3.00;;;15.00;99.90;;;;;;5094303;28;20092;-66
2023/04/22 08:54:57;;;;;;;9.38;3.30;;;15.50;99.90;;;;;;5110291;28;20040;-67
2023/04/22 08:57:23;;;;;;;7.95;3.63;;;16.10;99.90;;;;;;5111095;28;20054;-67
2023/04/22 08:59:50;;;;;;;6.35;2.65;;;16.60;99.90;;;;;;5110585;28;20036;-68
2023/04/22 09:02:18;;;;;;;5.20;3.38;;;16.90;99.90;;;;;;5110407;28;20152;-69
2023/04/22 09:04:47;;;;;;;6.97;3.58;;;17.00;99.90;;;;;;5112079;28;20043;-64
2023/04/22 09:07:25;;;;;;;5.03;3.22;;;17.00;99.90;;;;;;5110637;28;20073;-64
2023/04/22 09:09:53;;;;;;;7.95;4.43;;;17.00;99.90;;;;;;5089599;28;20508;-64
2023/04/22 09:12:20;;;;;;;6.25;3.75;;;16.80;99.90;;;;;;5089973;28;20533;-64
2023/04/22 09:14:46;;;;;;;4.47;2.70;;;16.70;99.90;;;;;;5091139;28;20063;-64
2023/04/22 09:17:17;;;;;;;7.28;3.25;;;16.50;99.90;;;;;;5090451;28;20097;-64
2023/04/22 09:19:56;;;;;;;5.47;2.38;;;16.50;99.90;;;;;;5073725;28;20043;-64
2023/04/22 09:22:22;;;;;;;6.03;2.92;;;16.60;99.90;;;;;;5089310;28;20101;-65
2023/04/22 09:24:51;;;;;;;5.70;3.50;;;16.60;99.90;;;;;;5090440;28;20440;-64
2023/04/22 09:27:17;;;;;;;5.47;3.17;;;16.60;99.90;;;;;;5090409;28;20036;-65
2023/04/22 09:29:51;;;;;;;3.92;2.17;;;16.80;99.90;;;;;;5090404;28;20290;-65
2023/04/22 09:32:18;;;;;;;7.78;2.78;;;16.90;99.90;;;;;;5088962;28;20394;-65
2023/04/22 09:34:52;;;;;;;3.65;1.90;;;17.10;99.90;;;;;;5090011;28;20473;-64
2023/04/22 09:37:24;;;;;;;4.70;2.00;;;17.30;99.90;;;;;;5090346;28;20038;-65
2023/04/22 09:39:51;;;;;;;4.78;2.33;;;17.50;99.90;;;;;;5090052;28;20400;-65
2023/04/22 09:42:18;;;;;;;3.90;2.10;;;17.70;99.90;;;;;;5087482;28;20045;-66
2023/04/22 09:44:45;;;;;;;5.25;2.55;;;17.60;99.90;;;;;;5110137;28;20040;-65
2023/04/22 09:47:12;;;;;;;5.25;2.45;;;17.70;99.90;;;;;;5110733;28;20035;-65
2023/04/22 09:49:38;;;;;;;4.95;3.22;;;17.90;99.90;;;;;;5110061;28;20046;-65
2023/04/22 09:52:04;;;;;;;5.18;2.67;;;18.00;99.90;;;;;;5110633;28;20048;-65
2023/04/22 09:54:30;;;;;;;3.90;2.53;;;18.30;99.90;;;;;;5110815;28;20039;-66
2023/04/22 09:56:56;;;;;;;4.25;2.30;;;18.60;99.90;;;;;;5109888;28;20540;-65
2023/04/22 09:59:25;;;;;;;3.45;1.92;;;18.80;99.90;;;;;;5110470;28;20039;-65
2023/04/22 10:01:54;;;;;;;6.55;3.42;;;18.80;99.90;;;;;;5110609;28;20051;-66
2023/04/22 10:04:21;;;;;;;6.10;2.88;;;18.80;99.90;;;;;;5092730;28;20186;-65
2023/04/22 10:06:49;;;;;;;4.22;2.28;;;18.90;99.90;;;;;;5110229;28;20089;-65
2023/04/22 10:09:20;;;;;;;4.88;2.20;;;19.10;99.90;;;;;;5111298;27;20043;-66
2023/04/22 10:11:47;;;;;;;4.57;2.58;;;19.30;99.90;;;;;;5108705;28;20496;-65
2023/04/22 10:14:13;;;;;;;4.85;2.92;;;19.60;99.90;;;;;;5109605;28;20050;-65
2023/04/22 10:16:42;;;;;;;5.28;2.80;;;19.80;99.90;;;;;;5092526;28;20031;-65
2023/04/22 10:19:12;;;;;;;3.20;1.73;;;19.90;99.90;;;;;;5108748;28;20081;-65
2023/04/22 10:21:41;;;;;;;3.00;1.73;;;20.00;99.90;;;;;;5109757;28;20092;-65
2023/04/22 10:24:15;;;;;;;2.80;1.80;;;20.20;99.90;;;;;;5109426;28;20400;-66
2023/04/22 10:26:49;;;;;;;4.72;2.53;;;20.40;99.90;;;;;;5108527;28;20055;-65
2023/04/22 10:29:19;;;;;;;4.95;2.13;;;20.40;99.90;;;;;;5109120;28;20122;-65
2023/04/22 10:32:02;;;;;;;4.63;2.10;;;20.60;99.90;;;;;;5108758;28;20031;-65
2023/04/22 10:34:31;;;;;;;4.90;2.30;;;20.80;99.90;;;;;;5108424;28;20093;-66
2023/04/22 10:37:00;;;;;;;4.28;2.40;;;20.90;99.90;;;;;;5108828;28;20071;-66
2023/04/22 10:39:27;;;;;;;;;;;20.90;99.90;;;;;;5108873;28;20052;-65
2023/04/22 10:42:06;;;;;;;3.22;2.10;;;20.80;99.90;;;;;;5109011;28;19944;-65
2023/04/22 10:44:47;;;;;;;4.75;3.05;;;20.70;99.90;;;;;;5091924;28;20051;-65
2023/04/22 10:47:25;;;;;;;4.45;2.13;;;20.80;99.90;;;;;;5109588;28;20127;-65
2023/04/22 10:49:51;;;;;;;4.78;2.05;;;21.00;99.90;;;;;;5110058;28;20051;-65
2023/04/22 10:52:29;;;;;;;3.53;1.73;;;21.20;99.90;;;;;;5109037;28;20397;-65
2023/04/22 10:54:56;;;;;;;2.63;1.50;;;21.40;99.90;;;;;;5101216;28;20039;-65
2023/04/22 10:57:29;;;;;;;5.85;2.15;;;21.50;99.90;;;;;;5088488;28;20127;-65
2023/04/22 10:59:58;;;;;;;3.63;1.77;;;21.60;99.90;;;;;;5087349;28;20044;-65
2023/04/22 11:02:23;;;;;;;4.13;1.80;;;21.70;99.90;;;;;;5088209;28;20058;-65
2023/04/22 11:04:53;;;;;;;3.88;1.85;;;21.70;99.90;;;;;;5088260;28;20040;-65
2023/04/22 11:07:25;;;;;;;;;;;21.80;99.90;;;;;;5071202;28;20397;-65
2023/04/22 11:10:06;;;;;;;4.97;1.70;;;21.80;99.90;;;;;;5089661;28;19924;-65
2023/04/22 11:12:38;;;;;;;3.00;1.67;;;21.90;99.90;;;;;;5071373;28;20043;-65
2023/04/22 11:15:08;;;;;;;3.22;2.10;;;21.80;99.90;;;;;;5087132;28;20121;-65
2023/04/22 11:17:35;;;;;;;2.90;1.95;;;21.50;99.90;;;;;;5087757;28;20039;-65
2023/04/22 11:20:02;;;;;;;4.05;2.05;;;21.60;99.90;;;;;;5087707;28;20047;-65
2023/04/22 11:22:28;;;;;;;5.22;2.17;;;21.80;99.90;;;;;;5087168;28;20631;-64
2023/04/22 11:24:58;;;;;;;3.95;1.95;;;21.90;99.90;;;;;;5087788;28;20040;-65
2023/04/22 11:27:25;;;;;;;3.13;1.63;;;21.70;99.90;;;;;;5088233;28;20462;-64
2023/04/22 11:30:09;;;;;;;3.45;1.67;;;21.50;99.90;;;;;;5087257;28;20414;-65
2023/04/22 11:32:37;;;;;;;3.45;2.03;;;21.10;99.90;;;;;;5089229;28;20051;-65
2023/04/22 11:35:11;;;;;;;6.43;1.67;;;20.90;99.90;;;;;;5087325;28;20421;-65
2023/04/22 11:37:48;;;;;;;2.85;1.60;;;20.80;99.90;;;;;;5089229;28;20046;-66
2023/04/22 11:40:20;;;;;;;4.35;1.80;;;20.70;99.90;;;;;;5087898;28;20078;-65
2023/04/22 11:42:47;;;;;;;4.93;1.58;;;20.60;99.90;;;;;;5086960;28;20036;-65
2023/04/22 11:45:15;;;;;;;3.15;1.85;;;20.40;99.90;;;;;;5088025;28;20059;-65
2023/04/22 11:47:41;;;;;;;4.35;2.03;;;20.30;99.90;;;;;;5071063;28;20130;-66
2023/04/22 11:50:12;;;;;;;6.93;2.42;;;20.10;99.90;;;;;;5088288;28;20036;-65
2023/04/22 11:52:41;;;;;;;5.45;2.20;;;19.80;99.90;;;;;;5070746;28;20036;-65
2023/04/22 11:55:15;;;;;;;3.43;1.80;;;19.50;99.90;;;;;;5087416;28;20045;-65
2023/04/22 11:57:42;;;;;;;4.18;2.20;;;19.40;99.90;;;;;;5086770;28;20075;-65
2023/04/22 12:00:12;;;;;;;5.55;1.83;;;19.20;99.90;;;;;;5088725;28;20040;-65
2023/04/22 12:02:39;;;;;;;3.47;1.65;;;19.10;99.90;;;;;;5069934;28;20044;-64
2023/04/22 12:05:10;;;;;;;3.25;1.55;;;19.00;99.90;;;;;;5087558;28;20036;-65
2023/04/22 12:07:36;;;;;;;4.82;1.90;;;19.10;99.90;;;;;;5088666;28;20040;-65
2023/04/22 12:10:06;;;;;;;2.90;1.75;;;19.30;99.90;;;;;;5086900;28;20048;-66
2023/04/22 12:12:34;;;;;;;5.00;2.08;;;19.50;99.90;;;;;;5088566;28;20079;-65
2023/04/22 12:15:15;;;;;;;4.22;2.40;;;19.80;99.90;;;;;;5087437;28;20040;-65
2023/04/22 12:17:44;;;;;;;5.00;2.40;;;20.00;99.90;;;;;;5086541;28;20040;-65
2023/04/22 12:20:12;;;;;;;3.67;2.08;;;20.10;99.90;;;;;;5088966;28;20032;-65
2023/04/22 12:22:38;;;;;;;2.33;1.53;;;20.00;99.90;;;;;;5087055;28;20486;-65
2023/04/22 12:25:04;;;;;;;4.80;2.03;;;19.80;99.90;;;;;;5087834;28;20097;-65
2023/04/22 12:27:30;;;;;;;5.47;2.45;;;19.60;99.90;;;;;;5070492;28;20048;-65
2023/04/22 12:29:56;;;;;;;5.53;2.03;;;19.50;99.90;;;;;;5086973;28;20040;-65
2023/04/22 12:32:25;;;;;;;4.85;2.30;;;19.30;99.90;;;;;;5086947;28;20039;-65
2023/04/22 12:34:51;;;;;;;4.97;2.45;;;19.20;99.90;;;;;;5088616;28;20082;-64
2023/04/22 12:37:17;;;;;;;5.50;2.35;;;19.00;99.90;;;;;;5088151;28;20036;-65
2023/04/22 12:39:43;;;;;;;4.53;2.13;;;18.90;99.90;;;;;;5086484;28;20073;-65
2023/04/22 12:42:10;;;;;;;3.70;2.10;;;18.80;99.90;;;;;;5087336;28;20040;-65
2023/04/22 12:44:36;;;;;;;4.18;2.33;;;18.80;99.90;;;;;;5087877;28;20044;-65
2023/04/22 12:47:01;;;;;;;5.15;1.95;;;18.80;99.90;;;;;;5087139;28;20036;-65
2023/04/22 12:49:27;;;;;;;4.45;2.22;;;18.90;99.90;;;;;;5069872;28;20036;-65
2023/04/22 12:51:53;;;;;;;4.72;2.38;;;19.00;99.90;;;;;;5086177;28;20058;-65
2023/04/22 12:54:20;;;;;;;4.13;2.00;;;19.10;99.90;;;;;;5087219;28;20043;-66